Time;durP1;ratioP1;P1;durP2;ratioP2;P2;SDS_P1;SDS_P2;PMS_P1;PMS_P2;Temp;Humidity;BMP_temperature;BMP_pressure;BME280_temperature;BME280_humidity;BME280_pressure;Samples;Min_cycle;Max_cycle;Signal;HPM_P1;HPM_P2
2024/01/23 00:01:21;;;;;;;80.57;37.95;;;-4.50;99.90;;;;;;4210422;28;20257;-61
2024/01/23 00:03:25;;;;;;;77.10;37.03;;;-4.60;99.90;;;;;;4209616;28;20097;-60
2024/01/23 00:05:26;;;;;;;79.38;37.65;;;-4.60;99.90;;;;;;4210387;28;20341;-60
2024/01/23 00:07:27;;;;;;;82.25;37.63;;;-4.60;99.90;;;;;;4209609;28;20480;-61
2024/01/23 00:09:28;;;;;;;79.38;37.35;;;-4.60;99.90;;;;;;4209665;28;20052;-61
2024/01/23 00:11:29;;;;;;;80.10;35.53;;;-4.50;99.90;;;;;;4209762;28;20040;-61
2024/01/23 00:13:30;;;;;;;73.47;35.35;;;-4.60;99.90;;;;;;4210386;28;20106;-61
2024/01/23 00:15:34;;;;;;;84.20;37.28;;;-4.60;99.90;;;;;;4209516;28;20048;-58
2024/01/23 00:17:35;;;;;;;71.97;36.00;;;-4.60;99.90;;;;;;4209822;28;20097;-59
2024/01/23 00:19:37;;;;;;;75.97;35.10;;;-4.60;99.90;;;;;;4210004;28;20024;-60
2024/01/23 00:21:38;;;;;;;79.97;35.93;;;-4.70;99.90;;;;;;4209983;28;20269;-59
2024/01/23 00:23:39;;;;;;;78.30;37.83;;;-4.70;99.90;;;;;;4210082;28;20261;-59
2024/01/23 00:25:41;;;;;;;72.60;33.83;;;-4.80;99.90;;;;;;4210567;28;20674;-58
2024/01/23 00:27:42;;;;;;;71.30;35.22;;;-4.70;99.90;;;;;;4209829;28;20066;-59
2024/01/23 00:29:43;;;;;;;73.03;35.00;;;-4.70;99.90;;;;;;4209950;28;20028;-59
2024/01/23 00:31:44;;;;;;;67.55;33.67;;;-4.70;99.90;;;;;;4210364;28;20020;-60
2024/01/23 00:33:45;;;;;;;68.73;34.53;;;-4.60;99.90;;;;;;4209777;28;20043;-60
2024/01/23 00:35:46;;;;;;;75.50;34.10;;;-4.60;99.90;;;;;;4209426;28;20302;-61
2024/01/23 00:37:48;;;;;;;77.28;34.85;;;-4.60;99.90;;;;;;4209750;28;20473;-61
2024/01/23 00:39:50;;;;;;;79.55;33.80;;;-4.60;99.90;;;;;;4209711;28;20076;-60
2024/01/23 00:41:52;;;;;;;77.03;33.77;;;-4.50;99.90;;;;;;4209605;28;20062;-59
2024/01/23 00:43:53;;;;;;;72.80;34.10;;;-4.50;99.90;;;;;;4209500;28;20280;-61
2024/01/23 00:45:54;;;;;;;74.30;33.90;;;-4.50;99.90;;;;;;4209377;28;20655;-61
2024/01/23 00:47:55;;;;;;;74.27;34.13;;;-4.50;99.90;;;;;;4207123;28;20070;-61
2024/01/23 00:49:56;;;;;;;71.50;32.53;;;-4.50;99.90;;;;;;4209023;28;20264;-61
2024/01/23 00:51:58;;;;;;;70.93;33.67;;;-4.50;99.90;;;;;;4209592;28;20085;-59
2024/01/23 00:54:00;;;;;;;63.90;31.17;;;-4.50;99.90;;;;;;4210495;28;20929;-60
2024/01/23 00:56:01;;;;;;;72.80;33.03;;;-4.50;99.90;;;;;;4209412;28;20733;-59
2024/01/23 00:58:03;;;;;;;65.77;31.17;;;-4.50;99.90;;;;;;4209628;28;20422;-60
2024/01/23 01:00:05;;;;;;;76.83;32.53;;;-4.50;99.90;;;;;;4209433;28;20307;-60
2024/01/23 01:02:06;;;;;;;76.10;34.28;;;-4.50;99.90;;;;;;4209149;28;20298;-60
2024/01/23 01:04:07;;;;;;;70.65;33.70;;;-4.50;99.90;;;;;;4209767;28;20028;-58
2024/01/23 01:06:08;;;;;;;71.18;34.05;;;-4.60;99.90;;;;;;4209734;28;20036;-58
2024/01/23 01:08:10;;;;;;;74.10;35.83;;;-4.60;99.90;;;;;;4192613;28;20041;-60
2024/01/23 01:10:11;;;;;;;75.72;34.47;;;-4.60;99.90;;;;;;4207992;28;20276;-59
2024/01/23 01:12:13;;;;;;;81.90;35.13;;;-4.60;99.90;;;;;;4208854;28;20032;-59
2024/01/23 01:14:14;;;;;;;76.00;35.75;;;-4.60;99.90;;;;;;4209661;28;20052;-59
2024/01/23 01:16:15;;;;;;;77.70;35.67;;;-4.60;99.90;;;;;;4211898;28;20032;-59
2024/01/23 01:18:16;;;;;;;75.88;36.17;;;-4.60;99.90;;;;;;4213009;28;20044;-59
2024/01/23 01:20:17;;;;;;;80.07;36.78;;;-4.60;99.90;;;;;;4212543;28;20070;-60
2024/01/23 01:22:19;;;;;;;74.43;35.53;;;-4.60;99.90;;;;;;4213309;28;20108;-59
2024/01/23 01:24:20;;;;;;;76.82;35.47;;;-4.70;99.90;;;;;;4213012;28;20028;-58
2024/01/23 01:26:21;;;;;;;81.93;37.45;;;-4.70;99.90;;;;;;4212715;28;20082;-59
2024/01/23 01:28:22;;;;;;;80.78;36.55;;;-4.70;99.90;;;;;;4212848;28;20035;-60
2024/01/23 01:30:28;;;;;;;84.87;35.53;;;-4.70;99.90;;;;;;4211351;28;20490;-59
2024/01/23 01:32:29;;;;;;;70.45;36.05;;;-4.70;99.90;;;;;;4212803;28;20663;-54
2024/01/23 01:34:31;;;;;;;78.20;36.63;;;-4.70;99.90;;;;;;4211159;28;20052;-60
2024/01/23 01:36:32;;;;;;;78.15;35.15;;;-4.70;99.90;;;;;;4212373;28;20322;-58
2024/01/23 01:38:34;;;;;;;74.53;34.72;;;-4.70;99.90;;;;;;4212803;28;20036;-59
2024/01/23 01:40:35;;;;;;;74.93;35.17;;;-4.70;99.90;;;;;;4212683;28;20584;-60
2024/01/23 01:42:36;;;;;;;75.82;34.53;;;-4.70;99.90;;;;;;4212229;28;20028;-57
2024/01/23 01:44:37;;;;;;;74.30;35.40;;;-4.80;99.90;;;;;;4212911;28;20086;-60
2024/01/23 01:46:39;;;;;;;79.45;35.13;;;-4.80;99.90;;;;;;4212320;28;20085;-60
2024/01/23 01:48:40;;;;;;;73.90;33.83;;;-4.80;99.90;;;;;;4211277;28;20108;-61
2024/01/23 01:50:42;;;;;;;75.80;35.00;;;-4.80;99.90;;;;;;4211929;28;20445;-59
2024/01/23 01:52:43;;;;;;;84.68;35.42;;;-4.80;99.90;;;;;;4212399;28;20089;-59
2024/01/23 01:54:46;;;;;;;79.50;35.35;;;-4.80;99.90;;;;;;4212002;28;20044;-60
2024/01/23 01:56:47;;;;;;;67.53;32.17;;;-4.80;99.90;;;;;;4211187;28;20074;-60
2024/01/23 01:58:50;;;;;;;79.93;34.53;;;-4.80;99.90;;;;;;4211710;28;20326;-60
2024/01/23 02:00:53;;;;;;;64.05;33.03;;;-4.90;99.90;;;;;;4211923;28;20073;-57
2024/01/23 02:02:54;;;;;;;66.50;31.15;;;-4.90;99.90;;;;;;4211861;28;20028;-61
2024/01/23 02:04:55;;;;;;;69.47;31.17;;;-4.90;99.90;;;;;;4211710;28;20093;-60
2024/01/23 02:06:57;;;;;;;68.97;32.75;;;-5.00;99.90;;;;;;4212555;28;20081;-58
2024/01/23 02:08:58;;;;;;;62.10;30.75;;;-5.00;99.90;;;;;;4212495;28;20077;-60
2024/01/23 02:11:01;;;;;;;66.65;31.85;;;-5.00;99.90;;;;;;4212259;28;20044;-60
2024/01/23 02:13:02;;;;;;;71.00;33.10;;;-5.00;99.90;;;;;;4211798;28;20081;-58
2024/01/23 02:15:04;;;;;;;69.28;30.02;;;-5.00;99.90;;;;;;4212350;28;20051;-61
2024/01/23 02:17:05;;;;;;;66.78;32.03;;;-5.00;99.90;;;;;;4212070;28;20058;-60
2024/01/23 02:19:06;;;;;;;71.57;31.40;;;-5.00;99.90;;;;;;4212297;28;20036;-61
2024/01/23 02:21:08;;;;;;;68.88;31.48;;;-5.00;99.90;;;;;;4211704;28;20097;-61
2024/01/23 02:23:16;;;;;;;75.35;32.40;;;-5.00;99.90;;;;;;4212286;28;20480;-61
2024/01/23 02:25:18;;;;;;;74.25;33.72;;;-5.00;99.90;;;;;;4211286;28;20032;-60
2024/01/23 02:27:19;;;;;;;76.03;33.25;;;-5.00;99.90;;;;;;4211546;28;20020;-59
2024/01/23 02:29:20;;;;;;;75.68;33.38;;;-5.00;99.90;;;;;;4211811;28;20397;-59
2024/01/23 02:31:21;;;;;;;67.78;30.55;;;-5.00;99.90;;;;;;4211390;28;20381;-59
2024/01/23 04:22:55;;;;;;;58.33;31.42;;;-5.80;99.90;;;;;;4243211;27;20407;-60
2024/01/23 04:24:56;;;;;;;62.75;30.85;;;-5.50;99.90;;;;;;4241377;27;20039;-59
2024/01/23 04:26:57;;;;;;;66.78;33.53;;;-5.50;99.90;;;;;;4242579;27;20032;-58
2024/01/23 04:28:58;;;;;;;61.95;33.08;;;-5.60;99.90;;;;;;4241545;27;20027;-59
2024/01/23 04:30:59;;;;;;;63.42;30.35;;;-5.50;99.90;;;;;;4242349;28;20035;-59
2024/01/23 04:33:01;;;;;;;58.55;30.10;;;-5.60;99.90;;;;;;4241170;27;20055;-58
2024/01/23 04:35:02;;;;;;;53.58;27.35;;;-5.50;99.90;;;;;;4242968;28;20032;-57
2024/01/23 04:37:03;;;;;;;59.88;30.80;;;-5.50;99.90;;;;;;4241365;27;20027;-60
2024/01/23 04:39:05;;;;;;;56.53;26.40;;;-5.50;99.90;;;;;;4242372;27;20393;-60
2024/01/23 04:41:06;;;;;;;54.38;26.52;;;-5.50;99.90;;;;;;4240910;28;20506;-58
2024/01/23 04:43:07;;;;;;;53.08;26.33;;;-5.50;99.90;;;;;;4241437;27;20395;-60
2024/01/23 04:45:09;;;;;;;66.20;29.30;;;-5.50;99.90;;;;;;4241134;27;20482;-58
2024/01/23 04:47:10;;;;;;;54.15;27.52;;;-5.50;99.90;;;;;;4240455;27;20104;-60
2024/01/23 04:49:11;;;;;;;71.80;32.78;;;-5.50;99.90;;;;;;4242043;27;20035;-61
2024/01/23 04:51:13;;;;;;;64.18;31.52;;;-5.60;99.90;;;;;;4241710;27;20040;-59
2024/01/23 04:53:14;;;;;;;64.85;30.02;;;-5.60;99.90;;;;;;4242417;28;20027;-57
2024/01/23 04:55:15;;;;;;;64.95;31.73;;;-5.60;99.90;;;;;;4239746;28;20039;-58
2024/01/23 04:57:18;;;;;;;62.58;29.95;;;-5.60;99.90;;;;;;4241551;28;20092;-61
2024/01/23 04:59:20;;;;;;;62.45;30.83;;;-5.60;99.90;;;;;;4239032;28;20096;-59
2024/01/23 05:01:21;;;;;;;68.25;30.52;;;-5.60;99.90;;;;;;4241593;27;20460;-61
2024/01/23 05:03:22;;;;;;;67.68;32.40;;;-5.70;99.90;;;;;;4241034;28;20027;-56
2024/01/23 05:05:23;;;;;;;60.30;30.27;;;-5.60;99.90;;;;;;4242119;28;20031;-61
2024/01/23 05:07:25;;;;;;;63.00;30.30;;;-5.70;99.90;;;;;;4241080;28;20032;-59
2024/01/23 05:09:30;;;;;;;63.92;31.02;;;-5.60;99.90;;;;;;4241952;27;20449;-61
2024/01/23 05:11:32;;;;;;;61.08;29.70;;;-5.60;99.90;;;;;;4240437;28;20080;-59
2024/01/23 05:13:33;;;;;;;63.72;31.20;;;-5.50;99.90;;;;;;4241808;28;20027;-59
2024/01/23 05:15:34;;;;;;;63.97;29.00;;;-5.50;99.90;;;;;;4240419;28;20057;-54
2024/01/23 05:17:36;;;;;;;60.38;29.83;;;-5.50;99.90;;;;;;4241090;27;20081;-60
2024/01/23 05:19:37;;;;;;;63.15;29.38;;;-5.40;99.90;;;;;;4240914;28;20028;-57
2024/01/23 05:21:38;;;;;;;62.08;29.52;;;-5.40;99.90;;;;;;4240838;27;20556;-59
2024/01/23 05:23:40;;;;;;;57.25;28.70;;;-5.30;99.90;;;;;;4230959;27;20040;-60
2024/01/23 05:25:42;;;;;;;71.18;31.65;;;-5.30;99.90;;;;;;4229214;28;20479;-60
2024/01/23 05:27:44;;;;;;;68.45;31.80;;;-5.40;99.90;;;;;;4229896;28;20088;-59
2024/01/23 05:29:45;;;;;;;69.03;31.95;;;-5.40;99.90;;;;;;4229362;27;20048;-57
2024/01/23 05:31:46;;;;;;;71.65;33.38;;;-5.40;99.90;;;;;;4230068;28;20084;-59
2024/01/23 05:33:48;;;;;;;64.63;30.52;;;-5.40;99.90;;;;;;4228941;28;20023;-60
2024/01/23 05:35:49;;;;;;;71.35;31.15;;;-5.40;99.90;;;;;;4229789;28;20073;-58
2024/01/23 05:37:50;;;;;;;65.72;30.67;;;-5.40;99.90;;;;;;4228979;28;20172;-58
2024/01/23 05:39:51;;;;;;;72.53;33.00;;;-5.40;99.90;;;;;;4230040;27;20092;-59
2024/01/23 05:41:52;;;;;;;78.03;35.75;;;-5.40;99.90;;;;;;4228738;28;20108;-58
2024/01/23 05:43:55;;;;;;;68.18;31.20;;;-5.40;99.90;;;;;;4230034;28;20031;-59
2024/01/23 05:45:56;;;;;;;69.30;33.33;;;-5.30;99.90;;;;;;4228661;28;20023;-59
2024/01/23 05:47:57;;;;;;;67.10;31.25;;;-5.30;99.90;;;;;;4226320;28;20023;-56
2024/01/23 05:49:59;;;;;;;66.53;31.75;;;-5.30;99.90;;;;;;4226131;27;20081;-57
2024/01/23 05:52:00;;;;;;;63.60;31.50;;;-5.30;99.90;;;;;;4217296;28;20044;-57
2024/01/23 05:54:02;;;;;;;71.18;32.13;;;-5.30;99.90;;;;;;4224526;28;20481;-58
2024/01/23 05:56:03;;;;;;;68.78;32.83;;;-5.30;99.90;;;;;;4216711;28;20019;-58
2024/01/23 05:58:05;;;;;;;73.28;32.88;;;-5.20;99.90;;;;;;4221555;28;20553;-59
2024/01/23 06:00:09;;;;;;;72.28;34.38;;;-5.10;99.90;;;;;;4224176;28;20144;-58
2024/01/23 06:02:11;;;;;;;71.95;32.28;;;-5.20;99.90;;;;;;4228524;28;20834;-57
2024/01/23 06:04:12;;;;;;;65.30;32.20;;;-5.10;99.90;;;;;;4228431;28;20444;-57
2024/01/23 06:06:14;;;;;;;70.25;31.20;;;-5.20;99.90;;;;;;4228833;28;20048;-61
2024/01/23 06:08:15;;;;;;;67.40;30.50;;;-5.20;99.90;;;;;;4228915;27;20555;-61
2024/01/23 06:10:17;;;;;;;62.25;31.70;;;-5.20;99.90;;;;;;4229823;28;20077;-60
2024/01/23 06:12:18;;;;;;;75.35;34.80;;;-5.20;99.90;;;;;;4228344;28;20019;-60
2024/01/23 06:14:20;;;;;;;78.10;39.53;;;-5.20;99.90;;;;;;4229497;28;20474;-59
2024/01/23 06:16:21;;;;;;;70.90;32.83;;;-5.00;99.90;;;;;;4228289;28;20437;-59
2024/01/23 06:18:22;;;;;;;64.07;31.40;;;-5.00;99.90;;;;;;4229443;28;20047;-59
2024/01/23 06:20:23;;;;;;;61.28;30.05;;;-5.10;99.90;;;;;;4228259;28;20025;-57
2024/01/23 06:22:25;;;;;;;66.57;31.52;;;-5.10;99.90;;;;;;4229442;28;20052;-60
2024/01/23 06:24:26;;;;;;;67.53;31.88;;;-5.20;99.90;;;;;;4228711;27;20448;-58
2024/01/23 06:26:27;;;;;;;67.20;32.28;;;-5.40;99.90;;;;;;4228818;28;20091;-57
2024/01/23 06:28:29;;;;;;;67.95;33.40;;;-5.40;99.90;;;;;;4228325;28;20081;-58
2024/01/23 06:30:30;;;;;;;75.80;30.67;;;-5.40;99.90;;;;;;4228443;28;20483;-60
2024/01/23 06:32:32;;;;;;;72.13;32.92;;;-5.40;99.90;;;;;;4229404;27;20036;-58
2024/01/23 06:34:34;;;;;;;67.70;33.53;;;-5.40;99.90;;;;;;4227441;28;20036;-60
2024/01/23 06:36:37;;;;;;;62.45;32.03;;;-5.30;99.90;;;;;;4229280;28;20028;-56
2024/01/23 06:38:38;;;;;;;75.82;33.58;;;-5.30;99.90;;;;;;4228508;28;20100;-59
2024/01/23 06:40:39;;;;;;;73.50;35.97;;;-5.20;99.90;;;;;;4229205;28;20028;-59
2024/01/23 06:42:41;;;;;;;76.18;35.83;;;-5.20;99.90;;;;;;4227900;28;20081;-59
2024/01/23 06:44:42;;;;;;;75.72;33.45;;;-5.20;99.90;;;;;;4228979;28;20024;-59
2024/01/23 06:46:43;;;;;;;81.82;35.63;;;-5.20;99.90;;;;;;4228134;28;20069;-58
2024/01/23 06:48:44;;;;;;;77.65;34.25;;;-5.20;99.90;;;;;;4228949;28;20032;-60
2024/01/23 06:50:45;;;;;;;77.70;33.75;;;-5.20;99.90;;;;;;4228064;28;20425;-59
2024/01/23 06:52:47;;;;;;;67.80;33.30;;;-5.10;99.90;;;;;;4229438;28;20023;-55
2024/01/23 06:54:48;;;;;;;79.20;35.75;;;-5.00;99.90;;;;;;4227853;28;20080;-58
2024/01/23 06:56:49;;;;;;;83.18;39.67;;;-4.90;99.90;;;;;;4228668;28;20023;-60
2024/01/23 06:58:50;;;;;;;83.32;40.10;;;-4.80;99.90;;;;;;4227853;28;20064;-59
2024/01/23 07:00:52;;;;;;;90.65;40.67;;;-4.70;99.90;;;;;;4228325;28;20035;-60
2024/01/23 07:02:53;;;;;;;87.20;41.13;;;-4.60;99.90;;;;;;4228458;28;20081;-59
2024/01/23 07:04:54;;;;;;;82.40;39.10;;;-4.60;99.90;;;;;;4227739;28;20325;-61
2024/01/23 07:06:56;;;;;;;77.07;38.33;;;-4.50;99.90;;;;;;4228201;28;20260;-59
2024/01/23 07:08:59;;;;;;;80.80;40.43;;;-4.50;99.90;;;;;;4227598;28;20314;-61
2024/01/23 07:11:00;;;;;;;90.00;41.72;;;-4.50;99.90;;;;;;4228664;28;21839;-60
2024/01/23 07:13:02;;;;;;;86.38;37.97;;;-4.50;99.90;;;;;;4227707;27;20084;-60
2024/01/23 07:15:03;;;;;;;86.53;41.20;;;-4.50;99.90;;;;;;4228628;28;20440;-59
2024/01/23 07:17:05;;;;;;;88.70;39.65;;;-4.40;99.90;;;;;;4227305;28;20268;-61
2024/01/23 07:19:06;;;;;;;84.70;38.90;;;-4.30;99.90;;;;;;4228820;28;20536;-58
2024/01/23 07:21:09;;;;;;;78.43;37.67;;;-4.30;99.90;;;;;;4227286;28;20264;-60
2024/01/23 07:23:10;;;;;;;75.15;37.15;;;-4.30;99.90;;;;;;4229103;28;20084;-60
2024/01/23 07:25:12;;;;;;;81.07;38.07;;;-4.20;99.90;;;;;;4227835;28;20040;-59
2024/01/23 07:27:13;;;;;;;76.73;36.33;;;-4.10;99.90;;;;;;4228636;27;20333;-60
2024/01/23 07:29:14;;;;;;;85.63;40.43;;;-4.10;99.90;;;;;;4227771;28;20279;-58
2024/01/23 07:31:15;;;;;;;73.93;36.73;;;-4.00;99.90;;;;;;4228553;27;20708;-61
2024/01/23 07:33:17;;;;;;;74.03;38.33;;;-3.90;99.90;;;;;;4227889;28;20673;-61
2024/01/23 07:35:18;;;;;;;76.43;37.70;;;-3.80;99.90;;;;;;4228037;27;20349;-62
2024/01/23 07:37:19;;;;;;;76.20;37.60;;;-3.80;99.90;;;;;;4228051;28;20337;-59
2024/01/23 07:39:21;;;;;;;79.97;39.30;;;-3.70;99.90;;;;;;4227612;28;20264;-60
2024/01/23 07:41:23;;;;;;;75.07;37.40;;;-3.80;99.90;;;;;;4228425;28;20276;-61
2024/01/23 07:43:27;;;;;;;76.33;35.60;;;-3.70;99.90;;;;;;4227026;28;20743;-64
2024/01/23 07:45:28;;;;;;;63.07;32.63;;;-3.70;99.90;;;;;;4228485;28;20327;-60
2024/01/23 07:47:29;;;;;;;67.27;33.07;;;-3.60;99.90;;;;;;4226976;28;20646;-60
2024/01/23 07:49:30;;;;;;;67.27;33.07;;;-3.60;99.90;;;;;;4228461;27;20751;-60
2024/01/23 07:51:48;;;;;;;65.70;33.93;;;-3.60;99.90;;;;;;4227032;28;20276;-57
2024/01/23 07:53:50;;;;;;;64.57;31.40;;;-3.60;99.90;;;;;;4228424;28;20859;-61
2024/01/23 07:55:52;;;;;;;66.43;32.67;;;-3.60;99.90;;;;;;4227230;28;20256;-59
2024/01/23 07:57:53;;;;;;;68.77;33.20;;;-3.70;99.90;;;;;;4228386;28;20780;-59
2024/01/23 07:59:54;;;;;;;59.03;29.67;;;-3.80;99.90;;;;;;4227236;28;20336;-56
2024/01/23 08:01:55;;;;;;;63.93;29.97;;;-3.90;99.90;;;;;;4228502;28;20371;-59
2024/01/23 08:03:57;;;;;;;58.33;28.23;;;-4.00;99.90;;;;;;4226746;28;20329;-59
2024/01/23 08:05:59;;;;;;;60.00;28.53;;;-4.00;99.90;;;;;;4227880;28;20328;-58
2024/01/23 08:08:00;;;;;;;60.63;28.03;;;-4.10;99.90;;;;;;4227174;28;20305;-59
2024/01/23 08:10:02;;;;;;;60.27;29.83;;;-4.10;99.90;;;;;;4227545;28;20318;-60
2024/01/23 08:12:05;;;;;;;69.17;31.70;;;-4.00;99.90;;;;;;4227687;28;20344;-59
2024/01/23 08:14:07;;;;;;;61.17;30.37;;;-4.10;99.90;;;;;;4227475;28;20267;-61
2024/01/23 08:16:09;;;;;;;66.87;31.27;;;-4.00;99.90;;;;;;4227622;28;20264;-61
2024/01/23 08:18:13;;;;;;;68.00;32.47;;;-3.90;99.90;;;;;;4227101;28;20302;-61
2024/01/23 08:20:14;;;;;;;80.00;37.20;;;-3.80;99.90;;;;;;4227918;28;20735;-58
2024/01/23 08:22:15;;;;;;;73.30;34.70;;;-3.70;99.90;;;;;;4225643;28;20368;-61
2024/01/23 08:24:16;;;;;;;71.80;35.20;;;-3.60;99.90;;;;;;4228174;28;20659;-58
2024/01/23 08:26:17;;;;;;;72.40;36.10;;;-3.50;99.90;;;;;;4226956;28;20333;-58
2024/01/23 08:28:19;;;;;;;71.13;35.50;;;-3.40;99.90;;;;;;4228080;28;20333;-57
2024/01/23 08:30:20;;;;;;;76.10;35.40;;;-3.20;99.90;;;;;;4226719;28;20272;-59
2024/01/23 08:32:22;;;;;;;65.93;32.67;;;-3.10;99.90;;;;;;4228229;28;20268;-59
2024/01/23 08:34:23;;;;;;;77.17;35.90;;;-3.10;99.90;;;;;;4226801;28;20264;-53
2024/01/23 08:36:24;;;;;;;71.40;33.50;;;-3.00;99.90;;;;;;4228244;28;20613;-59
2024/01/23 08:38:25;;;;;;;73.90;34.67;;;-3.00;99.90;;;;;;4226610;28;20321;-60
2024/01/23 08:40:27;;;;;;;71.20;33.97;;;-2.90;99.90;;;;;;4227727;28;20725;-60
2024/01/23 08:42:28;;;;;;;65.60;31.50;;;-2.80;99.90;;;;;;4226557;28;20288;-60
2024/01/23 08:44:29;;;;;;;63.00;30.30;;;-2.60;99.90;;;;;;4227399;28;20256;-60
2024/01/23 08:46:30;;;;;;;59.23;28.80;;;-2.50;99.90;;;;;;4226949;28;20248;-58
2024/01/23 08:48:32;;;;;;;67.57;30.53;;;-2.40;99.90;;;;;;4226982;28;20256;-55
2024/01/23 08:50:33;;;;;;;56.03;27.60;;;-2.30;99.90;;;;;;4227392;28;20317;-59
2024/01/23 08:52:34;;;;;;;58.30;29.63;;;-2.20;99.90;;;;;;4226889;28;20268;-57
2024/01/23 08:54:36;;;;;;;60.07;28.10;;;-2.20;99.90;;;;;;4227890;28;20256;-57
2024/01/23 08:56:37;;;;;;;56.57;26.80;;;-2.10;99.90;;;;;;4226278;28;20345;-59
2024/01/23 08:58:39;;;;;;;53.87;25.87;;;-2.20;99.90;;;;;;4229542;28;20260;-60
2024/01/23 09:00:40;;;;;;;46.87;25.20;;;-2.10;99.90;;;;;;4229519;28;20268;-59
2024/01/23 09:02:41;;;;;;;48.50;25.30;;;-2.00;99.90;;;;;;4230740;28;20291;-58
2024/01/23 09:04:42;;;;;;;57.43;29.43;;;-2.00;99.90;;;;;;4229554;28;20268;-60
2024/01/23 09:06:43;;;;;;;56.23;26.90;;;-2.00;99.90;;;;;;4230599;28;20272;-59
2024/01/23 09:08:44;;;;;;;54.73;28.80;;;-1.90;99.90;;;;;;4229274;28;20267;-59
2024/01/23 09:10:48;;;;;;;52.80;25.93;;;-1.80;99.90;;;;;;4230852;27;20393;-60
2024/01/23 09:12:49;;;;;;;50.13;26.23;;;-1.80;99.90;;;;;;4229475;28;20276;-58
2024/01/23 09:14:51;;;;;;;56.17;28.77;;;-1.70;99.90;;;;;;4230393;28;20341;-59
2024/01/23 09:16:52;;;;;;;59.27;28.77;;;-1.60;99.90;;;;;;4229793;28;20260;-58
2024/01/23 09:18:53;;;;;;;62.53;31.07;;;-1.50;99.90;;;;;;4230117;27;20285;-58
2024/01/23 09:20:56;;;;;;;63.33;30.60;;;-1.40;99.90;;;;;;4229844;28;20267;-59
2024/01/23 09:22:57;;;;;;;65.30;31.13;;;-1.50;99.90;;;;;;4230077;28;20712;-61
2024/01/23 09:24:59;;;;;;;63.27;30.47;;;-1.60;99.90;;;;;;4230077;28;20260;-58
2024/01/23 09:27:01;;;;;;;66.30;29.73;;;-1.80;99.90;;;;;;4229089;28;20272;-59
2024/01/23 09:29:02;;;;;;;64.37;30.87;;;-1.90;99.90;;;;;;4230623;28;20373;-59
2024/01/23 09:31:04;;;;;;;71.97;33.37;;;-1.90;99.90;;;;;;4229441;27;20341;-59
2024/01/23 09:33:05;;;;;;;74.67;35.80;;;-1.90;99.90;;;;;;4230620;27;20272;-60
2024/01/23 09:35:06;;;;;;;67.97;35.20;;;-1.90;99.90;;;;;;4229156;28;20256;-59
2024/01/23 09:37:07;;;;;;;73.10;34.77;;;-1.90;99.90;;;;;;4229961;28;20873;-60
2024/01/23 09:39:13;;;;;;;74.20;35.30;;;-1.80;99.90;;;;;;4229216;27;20264;-59
2024/01/23 09:41:15;;;;;;;67.77;34.13;;;-1.90;99.90;;;;;;4230290;27;20260;-59
2024/01/23 09:43:20;;;;;;;69.97;34.83;;;-1.80;99.90;;;;;;4228694;28;20340;-60
2024/01/23 09:45:26;;;;;;;64.53;31.47;;;-1.80;99.90;;;;;;4229950;28;20264;-58
2024/01/23 09:47:27;;;;;;;73.97;32.07;;;-1.80;99.90;;;;;;4228676;28;20389;-59
2024/01/23 09:49:30;;;;;;;65.50;32.33;;;-1.80;99.90;;;;;;4229976;28;20280;-60
2024/01/23 09:51:34;;;;;;;66.63;33.63;;;-1.80;99.90;;;;;;4228724;28;20284;-61
2024/01/23 09:53:39;;;;;;;68.87;34.83;;;-1.80;99.90;;;;;;4230488;27;20272;-62
2024/01/23 09:55:40;;;;;;;73.07;32.57;;;-1.70;99.90;;;;;;4229273;28;20317;-61
2024/01/23 09:57:43;;;;;;;66.40;32.90;;;-1.60;99.90;;;;;;4229609;28;20275;-61
2024/01/23 09:59:44;;;;;;;68.83;31.53;;;-1.60;99.90;;;;;;4229849;27;20264;-61
2024/01/23 10:01:47;;;;;;;64.87;32.23;;;-1.60;99.90;;;;;;4229100;28;20317;-61
2024/01/23 10:03:49;;;;;;;70.67;32.30;;;-1.60;99.90;;;;;;4229768;28;21072;-60
2024/01/23 10:05:51;;;;;;;62.80;31.93;;;-1.60;99.90;;;;;;4228816;28;20626;-59
2024/01/23 10:07:54;;;;;;;75.23;34.93;;;-1.60;99.90;;;;;;4230148;28;20321;-61
2024/01/23 10:10:05;;;;;;;73.37;34.13;;;-1.70;99.90;;;;;;4228368;28;20743;-60
2024/01/23 10:12:07;;;;;;;77.30;35.97;;;-1.70;99.90;;;;;;4229785;27;20272;-60
2024/01/23 10:14:09;;;;;;;72.83;34.77;;;-1.60;99.90;;;;;;4228496;28;20321;-60
2024/01/23 10:16:10;;;;;;;71.10;36.90;;;-1.60;99.90;;;;;;4229729;28;20317;-61
2024/01/23 10:18:12;;;;;;;69.43;33.73;;;-1.60;99.90;;;;;;4228565;28;20272;-61
2024/01/23 10:20:13;;;;;;;69.07;32.77;;;-1.50;99.90;;;;;;4229620;28;20593;-60
2024/01/23 10:22:16;;;;;;;67.40;33.63;;;-1.50;99.90;;;;;;4228056;28;20762;-60
2024/01/23 10:24:18;;;;;;;76.60;34.60;;;-1.50;99.90;;;;;;4230158;28;20328;-61
2024/01/23 10:26:20;;;;;;;70.43;34.80;;;-1.40;99.90;;;;;;4228078;28;20389;-59
2024/01/23 10:28:22;;;;;;;70.37;35.53;;;-1.50;99.90;;;;;;4229220;28;20263;-60
2024/01/23 10:30:24;;;;;;;74.33;33.87;;;-1.50;99.90;;;;;;4228251;28;20252;-61
2024/01/23 10:32:28;;;;;;;71.53;35.03;;;-1.40;99.90;;;;;;4228834;28;20264;-55
2024/01/23 10:34:29;;;;;;;70.67;33.33;;;-1.30;99.90;;;;;;4228482;28;20347;-60
2024/01/23 10:36:32;;;;;;;66.23;33.60;;;-1.30;99.90;;;;;;4229045;27;20272;-60
2024/01/23 10:38:38;;;;;;;71.67;32.13;;;-1.30;99.90;;;;;;4227116;28;20669;-60
2024/01/23 10:40:40;;;;;;;75.77;31.73;;;-1.30;99.90;;;;;;4227126;27;20272;-61
2024/01/23 10:42:42;;;;;;;65.50;30.97;;;-1.30;99.90;;;;;;4228817;27;20677;-60
2024/01/23 10:44:47;;;;;;;72.37;33.53;;;-1.30;99.90;;;;;;4227998;28;20309;-59
2024/01/23 10:46:50;;;;;;;58.83;31.97;;;-1.40;99.90;;;;;;4228930;28;20272;-59
2024/01/23 10:48:51;;;;;;;59.07;31.27;;;-1.40;99.90;;;;;;4228237;27;20681;-61
2024/01/23 10:50:56;;;;;;;58.33;31.10;;;-1.40;99.90;;;;;;4228899;28;20272;-58
2024/01/23 10:53:06;;;;;;;56.33;30.47;;;-1.50;99.90;;;;;;4228091;28;20294;-60
2024/01/23 10:55:08;;;;;;;68.68;32.58;;;-1.40;99.90;;;;;;4229038;28;20272;-58
2024/01/23 10:57:13;;;;;;;81.20;37.97;;;-1.30;99.90;;;;;;4227510;28;20094;-61
2024/01/23 10:59:18;;;;;;;74.33;36.33;;;-1.20;99.90;;;;;;4228807;28;20305;-61
2024/01/23 11:01:19;;;;;;;70.30;32.53;;;-1.10;99.90;;;;;;4227895;27;20300;-60
2024/01/23 11:03:21;;;;;;;59.67;30.33;;;-0.90;99.90;;;;;;4228861;28;20763;-62
2024/01/23 11:05:28;;;;;;;64.17;31.33;;;-0.80;99.90;;;;;;4226138;28;20268;-60
2024/01/23 11:08:01;;;;;;;62.43;30.97;;;-0.70;99.90;;;;;;4228820;27;20313;-61
2024/01/23 11:10:14;;;;;;;67.63;31.53;;;-0.50;99.90;;;;;;4227708;28;20673;-61
2024/01/23 11:12:27;;;;;;;60.60;30.93;;;-0.50;99.90;;;;;;4228539;28;20325;-58
2024/01/23 11:14:38;;;;;;;62.17;31.50;;;-0.30;99.90;;;;;;4227249;28;20275;-61
2024/01/23 11:16:39;;;;;;;57.67;28.25;;;-0.20;99.90;;;;;;4228889;28;20670;-61
2024/01/23 11:18:40;;;;;;;52.33;27.63;;;0.00;99.90;;;;;;4227537;28;20028;-61
2024/01/23 11:20:41;;;;;;;54.33;28.97;;;0.00;99.90;;;;;;4228109;28;20260;-60
2024/01/23 11:22:44;;;;;;;52.90;28.27;;;0.00;99.90;;;;;;4227115;28;20698;-60
2024/01/23 11:24:46;;;;;;;62.20;27.57;;;0.00;99.90;;;;;;4229069;28;20284;-59
2024/01/23 11:26:54;;;;;;;55.83;28.83;;;0.00;99.90;;;;;;4227283;28;20264;-60
2024/01/23 11:29:04;;;;;;;65.17;29.40;;;0.00;99.90;;;;;;4228361;28;20260;-58
2024/01/23 11:31:07;;;;;;;53.20;27.33;;;0.00;99.90;;;;;;4227220;28;20717;-59
2024/01/23 11:33:23;;;;;;;58.80;30.03;;;0.00;99.90;;;;;;4228529;28;20268;-59
2024/01/23 11:35:25;;;;;;;58.93;29.50;;;0.00;99.90;;;;;;4227295;28;20264;-60
2024/01/23 11:37:32;;;;;;;56.93;29.03;;;0.10;99.90;;;;;;4228421;27;20333;-59
2024/01/23 11:39:34;;;;;;;61.73;27.03;;;0.10;99.90;;;;;;4227266;27;20276;-59
2024/01/23 11:41:37;;;;;;;55.83;29.70;;;0.00;99.90;;;;;;4227953;28;20321;-60
2024/01/23 11:43:38;;;;;;;55.83;29.10;;;-0.10;99.90;;;;;;4227113;28;20340;-61
2024/01/23 11:45:40;;;;;;;59.90;29.37;;;-0.20;99.90;;;;;;4227697;28;20268;-60
2024/01/23 11:47:42;;;;;;;62.20;30.43;;;-0.20;99.90;;;;;;4227081;28;20278;-58
2024/01/23 11:49:44;;;;;;;63.87;28.87;;;-0.10;99.90;;;;;;4227506;28;20325;-59
2024/01/23 11:51:48;;;;;;;57.63;29.60;;;0.10;99.90;;;;;;4228002;28;20321;-61
2024/01/23 11:53:49;;;;;;;55.53;27.80;;;0.20;99.90;;;;;;4227578;28;20321;-60
2024/01/23 11:55:51;;;;;;;58.53;30.03;;;0.30;99.90;;;;;;4228019;28;20256;-62
2024/01/23 11:57:56;;;;;;;63.60;31.00;;;0.30;99.90;;;;;;4227160;28;20268;-59
2024/01/23 11:59:58;;;;;;;60.83;31.53;;;0.40;99.90;;;;;;4228295;27;20328;-59
2024/01/23 12:02:00;;;;;;;59.23;30.77;;;0.40;99.90;;;;;;4226865;28;20695;-58
2024/01/23 12:04:02;;;;;;;57.73;30.37;;;0.40;99.90;;;;;;4228196;28;20300;-57
2024/01/23 12:06:03;;;;;;;62.50;30.70;;;0.50;99.90;;;;;;4226598;28;20755;-59
2024/01/23 12:08:06;;;;;;;61.07;29.90;;;0.70;99.90;;;;;;4227844;28;20720;-58
2024/01/23 12:10:09;;;;;;;58.03;29.50;;;0.80;99.90;;;;;;4227108;28;20915;-61